Terminal Aerodrome Forecast
Issued by NWS

Home | Current Version | Previous Version | Text Only | Print | Product List | Glossary On
Versions: 1 2 3 4 5 6 7 8 9 10 11 12 13 14 15 16 17 18 19 20 21 22 23 24 25 26 27
000
FTUS44 KMOB 240528
TAFBFM
TAF
KBFM 240528Z 2406/2506 12007KT P6SM SCT250
     FM241200 10010KT P6SM BKN050
     FM241800 14015KT P6SM VCTS BKN020CB PROB30 2419/2424 VRB15KT
      TSRA BKN010CB
     FM250100 15010KT P6SM BKN030=

USA.gov is the U.S. government's official web portal to all federal, state and local government web resources and services.